createdAt,value
2023-05-21T00:01:23.756Z,18.11
2023-05-21T00:04:25.820Z,18.03
2023-05-21T00:07:27.955Z,18.04
2023-05-21T00:10:29.889Z,17.94
2023-05-21T00:13:31.806Z,17.98
2023-05-21T00:16:33.755Z,18.03
2023-05-21T00:19:36.007Z,17.96
2023-05-21T00:22:37.963Z,17.88
2023-05-21T00:25:39.819Z,17.80
2023-05-21T00:28:41.911Z,17.76
2023-05-21T00:31:43.954Z,17.75
2023-05-21T00:34:45.984Z,17.75
2023-05-21T00:37:48.203Z,17.57
2023-05-21T00:40:50.757Z,17.54
2023-05-21T00:43:52.983Z,17.57
2023-05-21T00:46:55.045Z,17.48
2023-05-21T00:49:57.069Z,17.46
2023-05-21T00:53:02.880Z,17.31
2023-05-21T00:56:05.708Z,17.40
2023-05-21T00:59:07.860Z,17.39
2023-05-21T01:02:10.105Z,17.44
2023-05-21T01:05:12.215Z,17.32
2023-05-21T01:08:15.049Z,17.40
2023-05-21T01:11:18.714Z,17.42
2023-05-21T01:14:22.644Z,17.43
2023-05-21T01:17:25.467Z,17.53
2023-05-21T01:20:30.516Z,17.58
2023-05-21T01:23:32.700Z,17.61
2023-05-21T01:26:38.636Z,17.58
2023-05-21T01:29:40.859Z,17.79
2023-05-21T01:32:54.109Z,17.89
2023-05-21T01:36:14.126Z,17.93
2023-05-21T01:39:31.666Z,17.85
2023-05-21T01:42:36.304Z,17.80
2023-05-21T01:45:40.948Z,17.80
2023-05-21T01:48:43.856Z,17.79
2023-05-21T01:51:46.301Z,17.80
2023-05-21T01:54:50.064Z,17.83
2023-05-21T01:57:53.570Z,17.67
2023-05-21T02:00:55.562Z,17.83
2023-05-21T02:03:58.349Z,17.81
2023-05-21T02:07:00.684Z,17.85
2023-05-21T02:10:02.654Z,17.85
2023-05-21T02:13:04.733Z,18.05
2023-05-21T02:16:10.333Z,17.72
2023-05-21T02:19:12.363Z,17.59
2023-05-21T02:22:15.454Z,17.43
2023-05-21T02:25:22.667Z,17.47
2023-05-21T02:28:24.609Z,17.45
2023-05-21T02:31:26.752Z,17.42
2023-05-21T02:34:32.368Z,17.44
2023-05-21T02:37:35.441Z,17.52
2023-05-21T02:40:37.491Z,17.61
2023-05-21T02:43:39.822Z,17.77
2023-05-21T02:46:42.003Z,17.58
2023-05-21T02:49:44.329Z,17.52
2023-05-21T02:52:46.410Z,17.77
2023-05-21T02:55:48.461Z,17.60
2023-05-21T02:58:52.140Z,17.43
2023-05-21T03:01:54.199Z,17.39
2023-05-21T03:04:56.158Z,17.44
2023-05-21T03:07:58.155Z,17.40
2023-05-21T03:11:00.766Z,17.23
2023-05-21T03:14:02.746Z,16.64
2023-05-21T03:17:08.500Z,16.63
2023-05-21T03:20:16.415Z,16.16
2023-05-21T03:23:18.451Z,16.28
2023-05-21T03:26:22.102Z,16.55
2023-05-21T03:29:24.247Z,16.32
2023-05-21T03:32:26.634Z,16.41
2023-05-21T03:35:29.375Z,16.31
2023-05-21T03:38:31.323Z,16.15
2023-05-21T03:41:33.588Z,16.30
2023-05-21T03:44:55.975Z,16.19
2023-05-21T03:48:16.578Z,16.23
2023-05-21T03:51:18.553Z,15.87
2023-05-21T03:54:20.944Z,16.05
2023-05-21T03:57:24.783Z,16.38
2023-05-21T04:00:26.720Z,16.72
2023-05-21T04:03:29.212Z,17.38
2023-05-21T04:06:31.323Z,17.76
2023-05-21T04:09:35.377Z,18.23
2023-05-21T04:12:38.529Z,18.10
2023-05-21T04:16:25.451Z,17.75
2023-05-21T04:19:28.217Z,17.38
2023-05-21T04:22:30.313Z,17.28
2023-05-21T04:25:32.298Z,17.96
2023-05-21T04:28:35.419Z,18.00
2023-05-21T04:31:37.986Z,17.85
2023-05-21T04:34:39.963Z,18.46
2023-05-21T04:37:46.097Z,18.25
2023-05-21T04:40:52.423Z,18.70
2023-05-21T04:43:55.300Z,18.70
2023-05-21T04:47:01.043Z,18.95
2023-05-21T04:50:04.512Z,18.77
2023-05-21T04:53:06.447Z,19.18
2023-05-21T04:56:09.827Z,19.38
2023-05-21T04:59:11.883Z,19.25
2023-05-21T05:02:13.753Z,19.30
2023-05-21T05:05:15.992Z,20.12
2023-05-21T05:08:18.211Z,20.08
2023-05-21T05:11:20.148Z,20.14
2023-05-21T05:14:22.319Z,19.89
2023-05-21T05:17:25.720Z,20.34
2023-05-21T05:20:27.700Z,20.31
2023-05-21T05:23:29.599Z,20.19
2023-05-21T05:26:31.560Z,20.33
2023-05-21T05:29:33.594Z,20.14
2023-05-21T05:32:35.682Z,20.62
2023-05-21T05:35:38.236Z,20.06
2023-05-21T05:38:40.365Z,20.59
2023-05-21T05:41:42.348Z,20.25
2023-05-21T05:44:44.375Z,20.87
2023-05-21T05:47:46.490Z,20.40
2023-05-21T05:50:48.796Z,20.81
2023-05-21T05:53:51.220Z,20.70
2023-05-21T05:56:53.169Z,20.57
2023-05-21T05:59:56.322Z,20.97
2023-05-21T06:02:58.625Z,20.74
2023-05-21T06:06:00.898Z,21.20
2023-05-21T06:09:04.348Z,21.16
2023-05-21T06:12:07.366Z,20.91
2023-05-21T06:15:09.729Z,21.00
2023-05-21T06:18:11.964Z,20.78
2023-05-21T06:21:14.207Z,21.30
2023-05-21T06:24:16.388Z,21.19
2023-05-21T06:27:18.895Z,21.28
2023-05-21T06:30:21.133Z,21.27
2023-05-21T06:33:23.436Z,21.90
2023-05-21T06:36:29.700Z,22.03
2023-05-21T06:39:32.398Z,21.87
2023-05-21T06:42:34.615Z,21.36
2023-05-21T06:46:02.773Z,21.91
2023-05-21T06:49:14.432Z,22.42
2023-05-21T06:52:17.770Z,21.98
2023-05-21T06:55:19.997Z,22.01
2023-05-21T07:19:41.632Z,22.95
2023-05-21T07:22:44.194Z,23.47
2023-05-21T07:25:47.726Z,22.90
2023-05-21T07:28:49.954Z,23.01
2023-05-21T07:31:51.916Z,23.23
2023-05-21T07:34:54.394Z,23.73
2023-05-21T07:37:59.338Z,23.46
2023-05-21T07:41:01.463Z,23.81
2023-05-21T07:44:03.508Z,23.61
2023-05-21T07:47:08.346Z,23.53
2023-05-21T07:50:11.530Z,23.29
2023-05-21T07:53:13.743Z,23.35
2023-05-21T07:56:15.838Z,24.09
2023-05-21T07:59:18.245Z,24.10
2023-05-21T08:02:20.538Z,24.20
2023-05-21T08:05:23.579Z,24.53
2023-05-21T08:08:26.124Z,24.29
2023-05-21T08:11:31.463Z,24.57
2023-05-21T08:14:33.474Z,25.00
2023-05-21T08:17:35.682Z,24.40
2023-05-21T08:20:38.027Z,25.02
2023-05-21T08:23:40.014Z,25.15
2023-05-21T08:26:41.934Z,24.88
2023-05-21T08:29:44.079Z,24.93
2023-05-21T08:32:46.619Z,24.91
2023-05-21T08:35:50.811Z,25.16
2023-05-21T08:38:52.721Z,25.17
2023-05-21T08:42:35.645Z,25.15
2023-05-21T08:45:42.766Z,25.27
2023-05-21T08:48:46.914Z,25.67
2023-05-21T08:51:50.370Z,25.39
2023-05-21T08:54:54.380Z,25.00
2023-05-21T08:57:56.427Z,25.40
2023-05-21T09:01:00.316Z,25.47
2023-05-21T09:04:19.062Z,25.20
2023-05-21T09:07:29.137Z,25.02
2023-05-21T09:10:53.799Z,25.45
2023-05-21T09:14:00.874Z,25.68
2023-05-21T09:17:26.064Z,25.79
2023-05-21T09:20:36.424Z,25.98
2023-05-21T09:23:38.677Z,26.46
2023-05-21T09:26:43.447Z,26.02
2023-05-21T09:29:45.846Z,26.11
2023-05-21T09:32:55.083Z,26.39
2023-05-21T09:35:57.526Z,26.35
2023-05-21T09:39:01.431Z,25.74
2023-05-21T09:42:03.482Z,26.46
2023-05-21T09:45:06.624Z,26.03
2023-05-21T09:48:08.671Z,26.42
2023-05-21T09:51:16.162Z,26.10
2023-05-21T09:54:18.304Z,26.42
2023-05-21T09:57:25.270Z,26.16
2023-05-21T10:00:28.826Z,26.30
2023-05-21T10:03:32.108Z,26.37
2023-05-21T10:06:38.414Z,26.38
2023-05-21T10:09:41.425Z,26.30
2023-05-21T10:12:48.279Z,26.48
2023-05-21T10:15:55.971Z,26.83
2023-05-21T10:18:58.891Z,27.38
2023-05-21T10:22:01.542Z,26.48
2023-05-21T10:25:05.548Z,26.95
2023-05-21T10:28:07.493Z,26.96
2023-05-21T10:31:09.812Z,27.52
2023-05-21T10:34:13.814Z,27.17
2023-05-21T10:37:16.638Z,26.74
2023-05-21T10:40:18.645Z,27.07
2023-05-21T10:43:38.648Z,27.32
2023-05-21T10:47:02.055Z,27.04
2023-05-21T10:50:11.378Z,27.11
2023-05-21T10:53:22.021Z,26.84
2023-05-21T10:56:39.304Z,26.96
2023-05-21T10:59:43.560Z,27.33
2023-05-21T11:02:46.193Z,27.31
2023-05-21T11:05:51.192Z,27.06
2023-05-21T11:08:56.070Z,27.34
2023-05-21T11:11:59.500Z,27.17
2023-05-21T11:15:01.788Z,27.26
2023-05-21T11:18:03.933Z,27.30
2023-05-21T11:21:13.647Z,27.46
2023-05-21T11:24:20.130Z,27.22
2023-05-21T11:27:38.485Z,27.26
2023-05-21T11:30:41.126Z,27.79
2023-05-21T11:33:43.198Z,27.71
2023-05-21T11:36:46.966Z,27.59
2023-05-21T11:39:50.577Z,27.55
2023-05-21T11:42:54.524Z,27.49
2023-05-21T11:45:57.028Z,27.37
2023-05-21T11:48:59.483Z,27.05
2023-05-21T11:52:02.260Z,27.29
2023-05-21T11:55:04.811Z,27.61
2023-05-21T11:58:09.097Z,27.56
2023-05-21T12:33:26.049Z,28.00
2023-05-21T12:36:31.895Z,27.80
2023-05-21T12:39:41.593Z,27.79
2023-05-21T12:42:44.601Z,28.00
2023-05-21T12:46:00.884Z,28.01
2023-05-21T12:49:02.902Z,27.89
2023-05-21T12:52:08.171Z,27.45
2023-05-21T12:55:13.641Z,27.84
2023-05-21T12:58:15.762Z,27.39
2023-05-21T13:01:17.788Z,27.64
2023-05-21T13:04:20.812Z,27.92
2023-05-21T13:07:23.142Z,28.37
2023-05-21T13:10:25.142Z,28.09
2023-05-21T13:13:27.082Z,28.40
2023-05-21T13:16:36.137Z,27.75
2023-05-21T13:19:38.090Z,28.11
2023-05-21T13:22:46.817Z,26.63
2023-05-21T13:25:48.942Z,26.67
2023-05-21T13:28:50.904Z,26.42
2023-05-21T13:31:53.032Z,26.45
2023-05-21T13:34:54.859Z,26.48
2023-05-21T13:37:56.804Z,27.46
2023-05-21T13:40:58.771Z,27.71
2023-05-21T13:44:00.884Z,27.82
2023-05-21T13:47:04.239Z,28.02
2023-05-21T13:50:07.023Z,27.83
2023-05-21T13:53:09.144Z,27.75
2023-05-21T13:56:11.046Z,27.93
2023-05-21T13:59:13.092Z,27.95
2023-05-21T14:02:15.080Z,27.53
2023-05-21T14:05:17.151Z,27.51
2023-05-21T14:08:20.739Z,28.02
2023-05-21T14:11:22.706Z,27.98
2023-05-21T14:14:24.869Z,27.35
2023-05-21T14:17:26.918Z,27.63
2023-05-21T14:20:43.477Z,27.95
2023-05-21T14:23:45.472Z,27.87
2023-05-21T14:26:47.469Z,27.99
2023-05-21T14:29:49.355Z,27.95
2023-05-21T14:32:51.317Z,27.92
2023-05-21T14:35:53.309Z,28.12
2023-05-21T14:38:55.354Z,27.50
2023-05-21T14:41:57.304Z,27.63
2023-05-21T14:45:07.437Z,27.55
2023-05-21T14:48:23.205Z,27.92
2023-05-21T14:51:25.424Z,27.06
2023-05-21T14:54:27.591Z,27.63
2023-05-21T14:57:29.586Z,27.62
2023-05-21T15:00:32.260Z,27.85
2023-05-21T15:03:34.246Z,27.49
2023-05-21T15:06:36.538Z,27.30
2023-05-21T15:09:38.382Z,26.96
2023-05-21T15:12:41.172Z,27.18
2023-05-21T15:15:43.099Z,27.11
2023-05-21T15:18:45.973Z,27.23
2023-05-21T15:21:48.064Z,27.39
2023-05-21T15:24:56.556Z,26.80
2023-05-21T15:27:58.575Z,26.81
2023-05-21T15:31:01.109Z,26.39
2023-05-21T15:34:03.061Z,26.46
2023-05-21T15:37:05.094Z,26.41
2023-05-21T15:40:08.806Z,26.33
2023-05-21T15:43:10.728Z,26.55
2023-05-21T15:46:12.891Z,26.59
2023-05-21T15:49:14.829Z,26.45
2023-05-21T15:52:17.064Z,26.44
2023-05-21T15:55:19.371Z,26.28
2023-05-21T15:58:21.240Z,26.52
2023-05-21T16:01:23.271Z,26.53
2023-05-21T16:04:25.343Z,26.06
2023-05-21T16:07:27.272Z,26.18
2023-05-21T16:10:29.205Z,26.33
2023-05-21T16:13:31.237Z,26.33
2023-05-21T16:16:34.265Z,26.35
2023-05-21T16:19:36.455Z,26.36
2023-05-21T16:22:38.498Z,26.05
2023-05-21T16:25:41.199Z,25.93
2023-05-21T16:28:43.188Z,26.04
2023-05-21T16:31:45.108Z,26.01
2023-05-21T16:34:47.189Z,26.28
2023-05-21T16:37:49.035Z,26.48
2023-05-21T16:40:50.944Z,26.15
2023-05-21T16:43:54.381Z,26.06
2023-05-21T16:46:56.385Z,26.00
2023-05-21T16:49:58.639Z,25.92
2023-05-21T16:53:02.551Z,25.81
2023-05-21T16:56:04.530Z,25.30
2023-05-21T16:59:06.440Z,25.34
2023-05-21T17:02:10.810Z,25.30
2023-05-21T17:05:12.730Z,25.13
2023-05-21T17:08:14.699Z,24.93
2023-05-21T17:11:17.606Z,24.89
2023-05-21T17:14:32.654Z,24.74
2023-05-21T17:17:35.701Z,24.61
2023-05-21T17:20:37.872Z,24.22
2023-05-21T17:23:39.830Z,24.00
2023-05-21T17:26:41.738Z,23.67
2023-05-21T17:29:43.659Z,23.33
2023-05-21T17:32:45.839Z,22.98
2023-05-21T17:35:47.767Z,22.62
2023-05-21T17:38:50.636Z,22.52
2023-05-21T17:41:52.979Z,22.32
2023-05-21T17:44:54.955Z,22.34
2023-05-21T17:47:59.840Z,22.38
2023-05-21T17:51:02.823Z,22.02
2023-05-21T17:54:05.794Z,22.15
2023-05-21T17:57:07.764Z,21.68
2023-05-21T18:00:10.251Z,21.53
2023-05-21T18:03:15.361Z,21.70
2023-05-21T18:06:17.477Z,21.62
2023-05-21T18:09:19.520Z,21.27
2023-05-21T18:12:21.536Z,21.14
2023-05-21T18:15:23.484Z,21.33
2023-05-21T18:18:25.500Z,21.26
2023-05-21T18:21:27.695Z,21.34
2023-05-21T18:24:29.623Z,21.10
2023-05-21T18:27:31.588Z,21.06
2023-05-21T18:30:34.178Z,21.07
2023-05-21T18:33:36.231Z,20.96
2023-05-21T18:36:40.942Z,20.87
2023-05-21T18:39:42.906Z,20.84
2023-05-21T18:42:44.927Z,20.54
2023-05-21T18:45:47.158Z,20.46
2023-05-21T18:48:49.078Z,20.38
2023-05-21T18:51:51.210Z,20.33
2023-05-21T18:54:54.495Z,20.24
2023-05-21T18:57:56.440Z,20.22
2023-05-21T19:00:58.458Z,20.03
2023-05-21T19:04:00.593Z,20.08
2023-05-21T19:07:03.871Z,19.85
2023-05-21T19:10:06.501Z,19.47
2023-05-21T19:13:08.592Z,19.63
2023-05-21T19:16:11.473Z,19.44
2023-05-21T19:19:13.486Z,19.55
2023-05-21T19:22:15.740Z,19.30
2023-05-21T19:25:17.731Z,19.28
2023-05-21T19:28:22.687Z,19.21
2023-05-21T19:31:25.523Z,19.04
2023-05-21T19:34:27.671Z,19.32
2023-05-21T19:37:29.593Z,19.16
2023-05-21T19:40:31.464Z,19.09
2023-05-21T19:43:33.440Z,19.13
2023-05-21T19:46:35.323Z,19.14
2023-05-21T19:49:37.329Z,19.13
2023-05-21T19:52:39.409Z,19.02
2023-05-21T19:55:41.665Z,18.96
2023-05-21T19:58:47.213Z,18.88
2023-05-21T20:01:49.570Z,18.98
2023-05-21T20:04:51.753Z,18.91
2023-05-21T20:07:54.525Z,18.93
2023-05-21T20:10:56.507Z,18.82
2023-05-21T20:13:58.378Z,19.00
2023-05-21T20:17:05.751Z,18.95
2023-05-21T20:20:10.299Z,18.72
2023-05-21T20:23:12.765Z,18.86
2023-05-21T20:26:15.773Z,18.71
2023-05-21T20:29:17.660Z,18.86
2023-05-21T20:32:19.586Z,18.90
2023-05-21T20:35:21.728Z,18.82
2023-05-21T20:38:25.857Z,18.70
2023-05-21T20:41:35.746Z,18.64
2023-05-21T20:44:37.681Z,18.56
2023-05-21T20:47:39.618Z,18.48
2023-05-21T20:50:44.544Z,18.41
2023-05-21T20:53:47.107Z,18.37
2023-05-21T20:56:50.894Z,18.42
2023-05-21T20:59:53.458Z,18.55
2023-05-21T21:02:55.562Z,18.32
2023-05-21T21:05:58.177Z,18.48
2023-05-21T21:09:00.121Z,18.31
2023-05-21T21:12:11.394Z,18.34
2023-05-21T21:15:23.350Z,18.28
2023-05-21T21:18:25.370Z,18.05
2023-05-21T21:21:28.641Z,18.21
2023-05-21T21:24:30.651Z,17.98
2023-05-21T21:27:32.558Z,17.92
2023-05-21T21:30:34.474Z,18.09
2023-05-21T21:33:36.488Z,18.11
2023-05-21T21:36:38.623Z,17.85
2023-05-21T21:39:40.606Z,17.79
2023-05-21T21:42:43.257Z,17.72
2023-05-21T21:45:45.241Z,17.70
2023-05-21T21:48:47.162Z,17.65
2023-05-21T21:51:49.249Z,17.50
2023-05-21T21:54:51.154Z,17.57
2023-05-21T21:57:53.131Z,17.46
2023-05-21T22:00:55.169Z,17.47
2023-05-21T22:03:57.727Z,17.41
2023-05-21T22:06:59.725Z,17.21
2023-05-21T22:10:01.699Z,17.13
2023-05-21T22:13:04.548Z,17.12
2023-05-21T22:16:07.416Z,17.12
2023-05-21T22:19:10.203Z,17.04
2023-05-21T22:22:12.385Z,16.99
2023-05-21T22:25:14.493Z,17.07
2023-05-21T22:28:16.377Z,17.11
2023-05-21T22:31:18.399Z,16.80
2023-05-21T22:34:20.536Z,16.77
2023-05-21T22:37:23.801Z,16.76
2023-05-21T22:40:25.803Z,16.73
2023-05-21T22:43:27.841Z,16.84
2023-05-21T22:46:29.819Z,16.66
2023-05-21T22:53:40.736Z,16.45
2023-05-21T22:56:43.294Z,16.38
2023-05-21T22:59:45.778Z,16.47
2023-05-21T23:02:50.649Z,16.37
2023-05-21T23:05:54.157Z,16.44
2023-05-21T23:08:56.059Z,16.44
2023-05-21T23:11:58.066Z,16.47
2023-05-21T23:15:00.394Z,16.47
2023-05-21T23:18:04.017Z,16.27
2023-05-21T23:21:06.605Z,16.45
2023-05-21T23:24:09.788Z,16.25
2023-05-21T23:27:11.747Z,16.23
2023-05-21T23:30:13.870Z,16.11
2023-05-21T23:33:15.823Z,16.09
2023-05-21T23:36:18.592Z,16.19
2023-05-21T23:39:21.175Z,16.15
2023-05-21T23:42:23.233Z,16.00
2023-05-21T23:45:25.289Z,15.99
2023-05-21T23:48:27.351Z,15.82
2023-05-21T23:51:29.362Z,15.99
2023-05-21T23:55:17.039Z,16.02
2023-05-21T23:58:19.407Z,16.09
